< < Back
Terminal Aerodrome Forecast


Current Version              Previous Versions:   1  2  3  4  5  6  7  8  9  

Terminal Aerodrome Forecast

745
FTUS42 KILM 202334
TAFFLO
TAF
KFLO 202334Z 2100/2124 20007KT P6SM SCT030 BKN150
     FM210400 23009KT P6SM BKN100
     FM210700 27006KT P6SM FEW060 SCT250
     FM211200 33008KT P6SM FEW040
     FM211800 27006KT P6SM SKC=

Latest METAR

137
SAUS70 KWBC 210100 RRQ
MTRFLO
METAR KFLO 210053Z 19010KT 10SM CLR 21/18 A2972 RMK AO2 SLP059
T02110178


USA.gov is the U.S. government's official web portal to all federal, state and local government web resources and services.